Kamrar, IA (50132)

5:15 PM CDT on August 29, 2016 (GMT -0500)
Tunnel Mill Park | | Change Station
Active Advisory: Special Statement

Elev 965 ft 42.35 °N, 93.85 °W | Updated 18 seconds ago

Scattered Clouds
Scattered Clouds
78.4 °F
Feels Like 81 °F
N
0.0
Wind Variable Wind from WNW
Gusts 3.0 mph

Today
High -- | Low -- °F
--% Chance of Precip.
Yesterday
High -- | Low -- °F
Precip. -- in
Pressure 30.18 in
Visibility 10.0 miles
Clouds Scattered Clouds 3200 ft
Scattered Clouds 4000 ft
Scattered Clouds 4900 ft
Heat Index 81 °F
Dew Point 72 °F
Humidity 80%
Rainfall 0.00 in
Snow Depth Not available.
6:37 AM 7:53 PM
Waning Crescent, 6% visible
METAR KIFA 292155Z AUTO 13009KT 10SM SCT032 SCT040 SCT049 23/20 A3018 RMK AO2 P0001 T02290198
Pressure 30.18 in
Visibility 10.0 miles
Clouds Scattered Clouds 3200 ft
Scattered Clouds 4000 ft
Scattered Clouds 4900 ft
Heat Index 81 °F
Dew Point 72 °F
Humidity 80%
Rainfall 0.00 in
Snow Depth Not available.
6:37 AM 7:53 PM
Waning Crescent, 6% visible
METAR KIFA 292155Z AUTO 13009KT 10SM SCT032 SCT040 SCT049 23/20 A3018 RMK AO2 P0001 T02290198

10-Day Weather Forecast

Almanac

Astronomy

Aug. 29, 2016 Rise Set
Actual Time
Civil Twilight
Nautical Twilight
Astronomical Twilight
Moon
Length of Visible Light
Length of Day
Tomorrow will be .
, % of the Moon is Illuminated

Today's Extremes

State Highs State Lows

Community

WunderPhotos

Upload Photos

1,935,691 photos uploaded!

WunderBlog® & News

Nearby

Air Quality

  Air Quality AQ Index Pollutant
Not available.

Snow Depth

Station Depth Elevation

Earthquake Activity

City Distance Mag. Time & Date
Minimum magnitude displayed is 2.5.

Coastal Water Temperatures

Place Temperature

Stations

Nearby Weather Stations

Station Location Temp. Windchill Dew Point Humidity Wind Precip. Elev Updated Type
                   

Watches & Warnings

Special Statement
Issued: 1:37 PM CDT Aug. 29, 2016 – National Weather Service

... Conditions are favorable for funnel clouds...

Current atmospheric conditions support the development of funnel
clouds across much of Iowa this afternoon. Usually... these funnel
clouds can form from showers and weak thunderstorms. These funnels
are normally brief... drop only a few hundred feet from the cloud
base... and rarely become a tornado or cause damage. However... if
one is spotted... please immediately report it to the National
Weather Service. If a Tornado Warning would become
necessary... take appropriate action.


Small